Royse City's Hourly Summary for Tuesday, March 14, 2017
Hour Temp
(f)
RH
(%)
Solar Rad.
(MJ/m2)
Rainfall
(in)
Wind
(mph)
3/14/2017 12:00 AM 42 50 0 0 2.13
3/14/2017 1:00 AM 40 54 0 0 0.97
3/14/2017 2:00 AM 39 59 0 0 0.65
3/14/2017 3:00 AM 38 60 0 0 1.07
3/14/2017 4:00 AM 36 66 0 0 0.3
3/14/2017 5:00 AM 35 68 0 0 1.17
3/14/2017 6:00 AM 35 70 0 0 0.31
3/14/2017 7:00 AM 34 74 0 0 0.32
3/14/2017 8:00 AM 34 75 0.04 0 0.46
3/14/2017 9:00 AM 36 64 0.29 0 0.7
3/14/2017 10:00 AM 42 48 1.21 0 1.9
3/14/2017 11:00 AM 45 45 1.96 0 2.93
3/14/2017 12:00 PM 48 41 2.56 0 1.86
3/14/2017 1:00 PM 51 36 2.89 0 1.78
3/14/2017 2:00 PM 54 35 3.02 0 2.13
3/14/2017 3:00 PM 56 32 2.82 0 1.89
3/14/2017 4:00 PM 59 32 2.59 0 2.24
3/14/2017 5:00 PM 60 30 1.84 0 2.15
3/14/2017 6:00 PM 61 33 1.2 0 1.39
3/14/2017 7:00 PM 59 33 0.36 0 1.38
3/14/2017 8:00 PM 55 40 0.02 0 0.14
3/14/2017 9:00 PM 52 47 0 0 0
3/14/2017 10:00 PM 51 50 0 0 0.51
3/14/2017 11:00 PM 50 51 0 0 0.57
Data Summary 46 49 20.80 0.00 1.21